Otsdawa, New York
Current Conditions -  °F | °C
As of 1:53 AM on Sunday 26 Oct 2014 (Local Time) from KBGM Reporting Station
Clear Clear  
Wind Chill: 41°   Ceiling: Unl
Heat Index: 44°   Visibility: 10mi
Dew Point: 42°   Wind: 6mph
Humidity: 93%   Direction: 310°NW
Pressure: 29.59"   Gusts: NA
Location:  42.4311°N, 75.2243°W
Report Text: KBGM 260553Z AUTO 31005KT 10SM CLR 07/06 A2959 RMK AO2 PK WND 34036/0507 WSHFT 0445 LTG DSNT E AND SE RAE32 TSB0455E18 SLP021 P0010 60010 T00670056 10128 20067 56003
Loading
Personal Weather Stations






























Interactive Weather Map
Tropical Storm Tracking
New forecast layout! Learn more

10-Day Weather Forecast

Advertisements
Track Severe Weather on mobile